Auburn, Missouri
Current Conditions -  °F | °C
As of 8:22 AM on Sunday 25 Jan 2015 (Local Time) from KSET Reporting Station
Haze Haze  
Wind Chill: 41°   Ceiling: 1700
Heat Index: 41°   Visibility: 1.2mi
Dew Point: 41°   Wind: 0mph
Humidity: 100%   Direction: NA
Pressure: 29.58"   Gusts: NA
Location:  39.1646°N, 90.8436°W
Report Text: KSET 251422Z AUTO 00000KT 1 1/4SM BR OVC017 05/05 A2958 RMK AO2 T00500050
Loading
Personal Weather Stations






























Interactive Weather Map New forecast layout! Learn more

10-Day Weather Forecast

Advertisements
Track Severe Weather on mobile